N4JP KBOS-KDCA
Flight info
| Callsign | N4JP |
|---|---|
| Flight time | 1h 8m |
| Altitude | 43000 |
| Route | PATSS7 PATSS NELIE BIZEX Q75 MXE CLIPR3 |
| Aircraft | C750/M-SBDE3FGHRWXY/S |
Departure
| Time | 2026-05-08 01:06 |
|---|---|
| Airport | Boston Logan International Airport (KBOS) |
Arrival
| Time | 2026-05-08 02:14 |
|---|---|
| Airport | Ronald Reagan Washington National Airport (KDCA) |
| Time | Latitude | Longitude | Altitude | Speed | Heading |
|---|---|---|---|---|---|
| 2026-05-08 00:47 | 42.37383 | -71.02108 | 12 ft | 0 kts | 314° |
| 2026-05-08 00:57 | 42.37384 | -71.02110 | 12 ft | 1 kts | 313° |
| 2026-05-08 00:57 | 42.37409 | -71.02118 | 12 ft | 7 kts | 23° |
| 2026-05-08 00:57 | 42.37452 | -71.02035 | 11 ft | 14 kts | 103° |
| 2026-05-08 00:57 | 42.37368 | -71.01918 | 11 ft | 21 kts | 136° |
| 2026-05-08 00:58 | 42.37259 | -71.01771 | 13 ft | 23 kts | 134° |
| 2026-05-08 00:58 | 42.37136 | -71.01609 | 14 ft | 26 kts | 135° |
| 2026-05-08 00:58 | 42.37009 | -71.01437 | 11 ft | 26 kts | 135° |
| 2026-05-08 00:58 | 42.36885 | -71.01267 | 10 ft | 26 kts | 135° |
| 2026-05-08 00:59 | 42.36739 | -71.01139 | 13 ft | 24 kts | 189° |
| 2026-05-08 00:59 | 42.36593 | -71.01207 | 13 ft | 22 kts | 199° |
| 2026-05-08 00:59 | 42.36452 | -71.01276 | 11 ft | 19 kts | 199° |
| 2026-05-08 00:59 | 42.36381 | -71.01309 | 12 ft | 10 kts | 198° |
| 2026-05-08 01:00 | 42.36317 | -71.01274 | 14 ft | 13 kts | 123° |
| 2026-05-08 01:00 | 42.36264 | -71.01151 | 15 ft | 18 kts | 118° |
| 2026-05-08 01:00 | 42.36215 | -71.01008 | 14 ft | 12 kts | 112° |
| 2026-05-08 01:00 | 42.36186 | -71.00922 | 14 ft | 8 kts | 114° |
| 2026-05-08 01:01 | 42.36179 | -71.00898 | 14 ft | 1 kts | 114° |
| 2026-05-08 01:01 | 42.36171 | -71.00873 | 13 ft | 6 kts | 113° |
| 2026-05-08 01:01 | 42.36144 | -71.00791 | 10 ft | 13 kts | 114° |
| 2026-05-08 01:01 | 42.36102 | -71.00639 | 10 ft | 21 kts | 109° |
| 2026-05-08 01:02 | 42.36055 | -71.00455 | 13 ft | 19 kts | 109° |
| 2026-05-08 01:02 | 42.36012 | -71.00288 | 13 ft | 17 kts | 109° |
| 2026-05-08 01:02 | 42.35976 | -71.00146 | 15 ft | 16 kts | 110° |
| 2026-05-08 01:02 | 42.35913 | -71.00021 | 14 ft | 18 kts | 131° |
| 2026-05-08 01:03 | 42.35818 | -70.99891 | 15 ft | 21 kts | 136° |
| 2026-05-08 01:03 | 42.35708 | -70.99744 | 12 ft | 23 kts | 134° |
| 2026-05-08 01:03 | 42.35595 | -70.99592 | 11 ft | 23 kts | 135° |
| 2026-05-08 01:03 | 42.35493 | -70.99447 | 9 ft | 14 kts | 115° |
| 2026-05-08 01:04 | 42.35493 | -70.99366 | 10 ft | 0 kts | 75° |
| 2026-05-08 01:04 | 42.35498 | -70.99341 | 10 ft | 7 kts | 75° |
| 2026-05-08 01:05 | 42.35512 | -70.99256 | 10 ft | 9 kts | 78° |
| 2026-05-08 01:05 | 42.35528 | -70.99244 | 10 ft | 2 kts | 327° |
| 2026-05-08 01:05 | 42.35530 | -70.99247 | 10 ft | 0 kts | 318° |
| 2026-05-08 01:05 | 42.35560 | -70.99285 | 10 ft | 31 kts | 317° |
| 2026-05-08 01:06 | 42.35995 | -70.99869 | 16 ft | 133 kts | 315° |
| 2026-05-08 01:06 | 42.36725 | -71.00827 | 434 ft | 155 kts | 315° |
| 2026-05-08 01:06 | 42.37576 | -71.01894 | 946 ft | 179 kts | 316° |
| 2026-05-08 01:06 | 42.38464 | -71.03197 | 1462 ft | 196 kts | 305° |
| 2026-05-08 01:07 | 42.39186 | -71.04767 | 2264 ft | 196 kts | 300° |
| 2026-05-08 01:07 | 42.39862 | -71.06393 | 3063 ft | 200 kts | 298° |
| 2026-05-08 01:07 | 42.40517 | -71.08035 | 3823 ft | 203 kts | 297° |
| 2026-05-08 01:07 | 42.40762 | -71.09933 | 4494 ft | 211 kts | 267° |
| 2026-05-08 01:08 | 42.40275 | -71.11829 | 4996 ft | 222 kts | 242° |
| 2026-05-08 01:08 | 42.39371 | -71.13555 | 5035 ft | 224 kts | 236° |
| 2026-05-08 01:08 | 42.38452 | -71.15238 | 5024 ft | 220 kts | 237° |
| 2026-05-08 01:08 | 42.37567 | -71.16922 | 5024 ft | 220 kts | 238° |
| 2026-05-08 01:09 | 42.36688 | -71.18610 | 5026 ft | 219 kts | 238° |
| 2026-05-08 01:09 | 42.35792 | -71.20322 | 5338 ft | 227 kts | 238° |
| 2026-05-08 01:09 | 42.34825 | -71.22171 | 5831 ft | 254 kts | 237° |
| 2026-05-08 01:09 | 42.33769 | -71.24176 | 6669 ft | 264 kts | 237° |
| 2026-05-08 01:10 | 42.32708 | -71.26182 | 7890 ft | 262 kts | 237° |
| 2026-05-08 01:10 | 42.31643 | -71.28206 | 9077 ft | 265 kts | 238° |
| 2026-05-08 01:10 | 42.30571 | -71.30246 | 10141 ft | 267 kts | 238° |
| 2026-05-08 01:10 | 42.29463 | -71.32354 | 10689 ft | 287 kts | 238° |
| 2026-05-08 01:11 | 42.28253 | -71.34655 | 10883 ft | 314 kts | 237° |
| 2026-05-08 01:11 | 42.26948 | -71.37123 | 11347 ft | 327 kts | 237° |
| 2026-05-08 01:11 | 42.25629 | -71.39603 | 12402 ft | 323 kts | 237° |
| 2026-05-08 01:11 | 42.24327 | -71.42067 | 13325 ft | 323 kts | 237° |
| 2026-05-08 01:12 | 42.23021 | -71.44541 | 14174 ft | 322 kts | 237° |
| 2026-05-08 01:12 | 42.21718 | -71.47003 | 14985 ft | 322 kts | 236° |
| 2026-05-08 01:12 | 42.20857 | -71.48624 | 15553 ft | 321 kts | 236° |
| 2026-05-08 01:12 | 42.19560 | -71.51068 | 16388 ft | 320 kts | 236° |
| 2026-05-08 01:13 | 42.18266 | -71.53508 | 17266 ft | 320 kts | 236° |
| 2026-05-08 01:13 | 42.16549 | -71.56740 | 18424 ft | 319 kts | 235° |
| 2026-05-08 01:13 | 42.15670 | -71.58393 | 18915 ft | 322 kts | 235° |
| 2026-05-08 01:13 | 42.14357 | -71.60860 | 19593 ft | 326 kts | 235° |
| 2026-05-08 01:14 | 42.13041 | -71.63333 | 20282 ft | 331 kts | 235° |
| 2026-05-08 01:14 | 42.11692 | -71.65863 | 20999 ft | 334 kts | 235° |
| 2026-05-08 01:14 | 42.10411 | -71.68487 | 21685 ft | 338 kts | 240° |
| 2026-05-08 01:14 | 42.09352 | -71.71332 | 22397 ft | 342 kts | 245° |
| 2026-05-08 01:15 | 42.08527 | -71.74358 | 23096 ft | 347 kts | 251° |
| 2026-05-08 01:15 | 42.07955 | -71.77541 | 23715 ft | 352 kts | 256° |
| 2026-05-08 01:15 | 42.07491 | -71.80784 | 24326 ft | 354 kts | 256° |
| 2026-05-08 01:15 | 42.07000 | -71.84035 | 24953 ft | 356 kts | 256° |
| 2026-05-08 01:16 | 42.06505 | -71.87312 | 25578 ft | 358 kts | 256° |
| 2026-05-08 01:16 | 42.06020 | -71.90607 | 26179 ft | 360 kts | 257° |
| 2026-05-08 01:16 | 42.05529 | -71.93935 | 26802 ft | 362 kts | 257° |
| 2026-05-08 01:16 | 42.05037 | -71.97226 | 27415 ft | 364 kts | 257° |
| 2026-05-08 01:17 | 42.04527 | -72.00623 | 28059 ft | 367 kts | 257° |
| 2026-05-08 01:17 | 42.04028 | -72.03952 | 28679 ft | 369 kts | 257° |
| 2026-05-08 01:17 | 42.03520 | -72.07355 | 29292 ft | 372 kts | 257° |
| 2026-05-08 01:17 | 42.03006 | -72.10775 | 29902 ft | 374 kts | 257° |
| 2026-05-08 01:18 | 42.02487 | -72.14212 | 30384 ft | 377 kts | 257° |
| 2026-05-08 01:18 | 42.01962 | -72.17682 | 30834 ft | 380 kts | 257° |
| 2026-05-08 01:18 | 42.01436 | -72.21157 | 31493 ft | 378 kts | 257° |
| 2026-05-08 01:18 | 42.00914 | -72.24605 | 32187 ft | 376 kts | 257° |
| 2026-05-08 01:19 | 42.00391 | -72.28047 | 32837 ft | 375 kts | 257° |
| 2026-05-08 01:19 | 41.99867 | -72.31478 | 33492 ft | 374 kts | 257° |
| 2026-05-08 01:19 | 41.99346 | -72.34897 | 34096 ft | 373 kts | 257° |
| 2026-05-08 01:19 | 41.98823 | -72.38314 | 34656 ft | 373 kts | 257° |
| 2026-05-08 01:20 | 41.98300 | -72.41724 | 35198 ft | 372 kts | 257° |
| 2026-05-08 01:20 | 41.97775 | -72.45139 | 35760 ft | 372 kts | 257° |
| 2026-05-08 01:20 | 41.97251 | -72.48541 | 36312 ft | 372 kts | 257° |
| 2026-05-08 01:20 | 41.96728 | -72.51936 | 36861 ft | 372 kts | 257° |
| 2026-05-08 01:21 | 41.96209 | -72.55291 | 37411 ft | 371 kts | 256° |
| 2026-05-08 01:21 | 41.95677 | -72.58728 | 37984 ft | 371 kts | 256° |
| 2026-05-08 01:21 | 41.95073 | -72.62051 | 38508 ft | 371 kts | 252° |
| 2026-05-08 01:21 | 41.94202 | -72.65309 | 38950 ft | 371 kts | 248° |
| 2026-05-08 01:22 | 41.93087 | -72.68441 | 39359 ft | 373 kts | 243° |
| 2026-05-08 01:22 | 41.91727 | -72.71430 | 39684 ft | 378 kts | 239° |
| 2026-05-08 01:22 | 41.90096 | -72.74288 | 39670 ft | 393 kts | 233° |
| 2026-05-08 01:22 | 41.88190 | -72.77002 | 39679 ft | 406 kts | 230° |
| 2026-05-08 01:23 | 41.86181 | -72.79743 | 39690 ft | 416 kts | 230° |
| 2026-05-08 01:23 | 41.82070 | -72.85416 | 39694 ft | 429 kts | 230° |
| 2026-05-08 01:23 | 41.80044 | -72.88170 | 39833 ft | 402 kts | 230° |
| 2026-05-08 01:24 | 41.78109 | -72.90804 | 39865 ft | 394 kts | 230° |
| 2026-05-08 01:24 | 41.74203 | -72.96190 | 39883 ft | 413 kts | 230° |
| 2026-05-08 01:25 | 41.70114 | -73.01746 | 39901 ft | 429 kts | 230° |
| 2026-05-08 01:25 | 41.65878 | -73.07526 | 39903 ft | 440 kts | 230° |
| 2026-05-08 01:26 | 41.61562 | -73.13387 | 39892 ft | 443 kts | 230° |
| 2026-05-08 01:26 | 41.57236 | -73.19256 | 39892 ft | 443 kts | 230° |
| 2026-05-08 01:27 | 41.52914 | -73.25108 | 39884 ft | 443 kts | 230° |
| 2026-05-08 01:27 | 41.48579 | -73.30965 | 39876 ft | 443 kts | 230° |
| 2026-05-08 01:28 | 41.44239 | -73.36818 | 39882 ft | 444 kts | 230° |
| 2026-05-08 01:28 | 41.39890 | -73.42670 | 39879 ft | 444 kts | 230° |
| 2026-05-08 01:29 | 41.35539 | -73.48515 | 39877 ft | 444 kts | 230° |
| 2026-05-08 01:29 | 41.31214 | -73.54311 | 39881 ft | 444 kts | 230° |
| 2026-05-08 01:30 | 41.27030 | -73.60334 | 39877 ft | 440 kts | 235° |
| 2026-05-08 01:30 | 41.23180 | -73.66691 | 39866 ft | 441 kts | 234° |
| 2026-05-08 01:31 | 41.19345 | -73.72975 | 39864 ft | 441 kts | 235° |
| 2026-05-08 01:31 | 41.15492 | -73.79311 | 39872 ft | 442 kts | 235° |
| 2026-05-08 01:32 | 41.11678 | -73.85691 | 39868 ft | 441 kts | 236° |
| 2026-05-08 01:32 | 41.07965 | -73.91953 | 39857 ft | 410 kts | 235° |
| 2026-05-08 01:32 | 41.06239 | -73.94811 | 39850 ft | 384 kts | 236° |
| 2026-05-08 01:33 | 41.04659 | -73.97464 | 39842 ft | 360 kts | 236° |
| 2026-05-08 01:33 | 41.03465 | -73.99481 | 39834 ft | 343 kts | 237° |
| 2026-05-08 01:33 | 41.02021 | -74.01903 | 39837 ft | 326 kts | 237° |
| 2026-05-08 01:34 | 40.99228 | -74.06580 | 39862 ft | 331 kts | 237° |
| 2026-05-08 01:34 | 40.97774 | -74.09015 | 39872 ft | 343 kts | 236° |
| 2026-05-08 01:34 | 40.96268 | -74.11523 | 39878 ft | 352 kts | 236° |
| 2026-05-08 01:35 | 40.93210 | -74.16604 | 39890 ft | 351 kts | 236° |
| 2026-05-08 01:35 | 40.90188 | -74.21636 | 39890 ft | 348 kts | 236° |
| 2026-05-08 01:36 | 40.87169 | -74.26647 | 39881 ft | 349 kts | 236° |
| 2026-05-08 01:36 | 40.84144 | -74.31663 | 39878 ft | 349 kts | 236° |
| 2026-05-08 01:37 | 40.81119 | -74.36670 | 39881 ft | 349 kts | 236° |
| 2026-05-08 01:37 | 40.78087 | -74.41679 | 39877 ft | 349 kts | 236° |
| 2026-05-08 01:38 | 40.75073 | -74.46653 | 39887 ft | 349 kts | 236° |
| 2026-05-08 01:38 | 40.72033 | -74.51661 | 39881 ft | 349 kts | 236° |
| 2026-05-08 01:39 | 40.68989 | -74.56667 | 39864 ft | 350 kts | 236° |
| 2026-05-08 01:39 | 40.65946 | -74.61665 | 39860 ft | 350 kts | 236° |
| 2026-05-08 01:40 | 40.62897 | -74.66663 | 39857 ft | 350 kts | 236° |
| 2026-05-08 01:40 | 40.59843 | -74.71662 | 39868 ft | 350 kts | 237° |
| 2026-05-08 01:41 | 40.56641 | -74.76525 | 39864 ft | 353 kts | 233° |
| 2026-05-08 01:41 | 40.53300 | -74.81269 | 39865 ft | 353 kts | 233° |
| 2026-05-08 01:42 | 40.49949 | -74.86006 | 39856 ft | 354 kts | 233° |
| 2026-05-08 01:42 | 40.46617 | -74.90708 | 39858 ft | 353 kts | 233° |
| 2026-05-08 01:43 | 40.43269 | -74.95429 | 39870 ft | 354 kts | 233° |
| 2026-05-08 01:43 | 40.39904 | -75.00165 | 39676 ft | 359 kts | 233° |
| 2026-05-08 01:43 | 40.38184 | -75.02590 | 39195 ft | 364 kts | 233° |
| 2026-05-08 01:44 | 40.36454 | -75.05014 | 38717 ft | 363 kts | 233° |
| 2026-05-08 01:44 | 40.34738 | -75.07417 | 38184 ft | 358 kts | 233° |
| 2026-05-08 01:44 | 40.33054 | -75.09777 | 37718 ft | 351 kts | 233° |
| 2026-05-08 01:44 | 40.31398 | -75.12102 | 37257 ft | 346 kts | 234° |
| 2026-05-08 01:45 | 40.29760 | -75.14398 | 36809 ft | 344 kts | 234° |
| 2026-05-08 01:45 | 40.28129 | -75.16683 | 36356 ft | 344 kts | 234° |
| 2026-05-08 01:45 | 40.26490 | -75.18977 | 35907 ft | 346 kts | 234° |
| 2026-05-08 01:45 | 40.24837 | -75.21287 | 35443 ft | 348 kts | 234° |
| 2026-05-08 01:46 | 40.23177 | -75.23602 | 34992 ft | 349 kts | 234° |
| 2026-05-08 01:46 | 40.21518 | -75.25916 | 34532 ft | 348 kts | 234° |
| 2026-05-08 01:46 | 40.19859 | -75.28229 | 34071 ft | 347 kts | 234° |
| 2026-05-08 01:46 | 40.18208 | -75.30531 | 33579 ft | 347 kts | 234° |
| 2026-05-08 01:47 | 40.16558 | -75.32827 | 33126 ft | 347 kts | 234° |
| 2026-05-08 01:47 | 40.14904 | -75.35129 | 32667 ft | 348 kts | 234° |
| 2026-05-08 01:47 | 40.13245 | -75.37435 | 32207 ft | 349 kts | 234° |
| 2026-05-08 01:48 | 40.09915 | -75.42058 | 31283 ft | 350 kts | 234° |
| 2026-05-08 01:48 | 40.08241 | -75.44380 | 30828 ft | 351 kts | 233° |
| 2026-05-08 01:48 | 40.06585 | -75.46675 | 30375 ft | 352 kts | 233° |
| 2026-05-08 01:48 | 40.04905 | -75.49001 | 29899 ft | 353 kts | 233° |
| 2026-05-08 01:49 | 40.03214 | -75.51340 | 29407 ft | 353 kts | 233° |
| 2026-05-08 01:49 | 40.01522 | -75.53682 | 28941 ft | 356 kts | 233° |
| 2026-05-08 01:49 | 39.99814 | -75.56044 | 28466 ft | 359 kts | 233° |
| 2026-05-08 01:49 | 39.98092 | -75.58420 | 27991 ft | 362 kts | 233° |
| 2026-05-08 01:50 | 39.96352 | -75.60818 | 27511 ft | 364 kts | 232° |
| 2026-05-08 01:50 | 39.94607 | -75.63224 | 27028 ft | 367 kts | 232° |
| 2026-05-08 01:50 | 39.92846 | -75.65650 | 26544 ft | 369 kts | 232° |
| 2026-05-08 01:50 | 39.91208 | -75.68211 | 26040 ft | 367 kts | 239° |
| 2026-05-08 01:51 | 39.89795 | -75.70981 | 25567 ft | 368 kts | 240° |
| 2026-05-08 01:51 | 39.88347 | -75.73759 | 25059 ft | 371 kts | 239° |
| 2026-05-08 01:51 | 39.86879 | -75.76540 | 24573 ft | 374 kts | 239° |
| 2026-05-08 01:51 | 39.85431 | -75.79313 | 24079 ft | 376 kts | 239° |
| 2026-05-08 01:52 | 39.83943 | -75.82185 | 23575 ft | 380 kts | 239° |
| 2026-05-08 01:52 | 39.82474 | -75.85004 | 23033 ft | 382 kts | 239° |
| 2026-05-08 01:52 | 39.80974 | -75.87863 | 22529 ft | 383 kts | 239° |
| 2026-05-08 01:52 | 39.79470 | -75.90735 | 22019 ft | 386 kts | 239° |
| 2026-05-08 01:53 | 39.77959 | -75.93627 | 21510 ft | 388 kts | 239° |
| 2026-05-08 01:53 | 39.76435 | -75.96537 | 20993 ft | 390 kts | 238° |
| 2026-05-08 01:53 | 39.74906 | -75.99450 | 20476 ft | 392 kts | 238° |
| 2026-05-08 01:53 | 39.73362 | -76.02389 | 19953 ft | 394 kts | 238° |
| 2026-05-08 01:54 | 39.71813 | -76.05337 | 19433 ft | 396 kts | 238° |
| 2026-05-08 01:54 | 39.70275 | -76.08260 | 18908 ft | 379 kts | 238° |
| 2026-05-08 01:54 | 39.68852 | -76.10947 | 18429 ft | 345 kts | 238° |
| 2026-05-08 01:54 | 39.67548 | -76.13420 | 17963 ft | 318 kts | 238° |
| 2026-05-08 01:55 | 39.66337 | -76.15727 | 17540 ft | 303 kts | 239° |
| 2026-05-08 01:55 | 39.65150 | -76.17987 | 17145 ft | 305 kts | 239° |
| 2026-05-08 01:55 | 39.63946 | -76.20271 | 16750 ft | 307 kts | 239° |
| 2026-05-08 01:55 | 39.62734 | -76.22560 | 16351 ft | 308 kts | 239° |
| 2026-05-08 01:56 | 39.61521 | -76.24851 | 15952 ft | 308 kts | 239° |
| 2026-05-08 01:56 | 39.60310 | -76.27140 | 15550 ft | 307 kts | 239° |
| 2026-05-08 01:56 | 39.59073 | -76.29346 | 15141 ft | 309 kts | 234° |
| 2026-05-08 01:56 | 39.57453 | -76.31213 | 14742 ft | 316 kts | 222° |
| 2026-05-08 01:57 | 39.55616 | -76.32796 | 14351 ft | 317 kts | 220° |
| 2026-05-08 01:57 | 39.54377 | -76.33864 | 14073 ft | 317 kts | 220° |
| 2026-05-08 01:57 | 39.52555 | -76.35460 | 13658 ft | 315 kts | 220° |
| 2026-05-08 01:57 | 39.50739 | -76.37049 | 13221 ft | 315 kts | 220° |
| 2026-05-08 01:58 | 39.48918 | -76.38630 | 12813 ft | 315 kts | 219° |
| 2026-05-08 01:58 | 39.47090 | -76.40215 | 12402 ft | 315 kts | 219° |
| 2026-05-08 01:58 | 39.45291 | -76.41776 | 11998 ft | 315 kts | 219° |
| 2026-05-08 01:58 | 39.43481 | -76.43348 | 11942 ft | 314 kts | 219° |
| 2026-05-08 01:59 | 39.41665 | -76.44924 | 11953 ft | 315 kts | 219° |
| 2026-05-08 01:59 | 39.39842 | -76.46504 | 11958 ft | 316 kts | 219° |
| 2026-05-08 01:59 | 39.38019 | -76.48082 | 11960 ft | 315 kts | 219° |
| 2026-05-08 01:59 | 39.36193 | -76.49663 | 11959 ft | 316 kts | 219° |
| 2026-05-08 02:00 | 39.34363 | -76.51246 | 11965 ft | 316 kts | 219° |
| 2026-05-08 02:00 | 39.32535 | -76.52825 | 11962 ft | 316 kts | 219° |
| 2026-05-08 02:00 | 39.30707 | -76.54405 | 11915 ft | 317 kts | 219° |
| 2026-05-08 02:00 | 39.28869 | -76.55993 | 11688 ft | 318 kts | 219° |
| 2026-05-08 02:01 | 39.27036 | -76.57574 | 11397 ft | 317 kts | 219° |
| 2026-05-08 02:01 | 39.25197 | -76.59158 | 11122 ft | 317 kts | 219° |
| 2026-05-08 02:01 | 39.23362 | -76.60741 | 10851 ft | 317 kts | 219° |
| 2026-05-08 02:01 | 39.21568 | -76.62279 | 10576 ft | 293 kts | 219° |
| 2026-05-08 02:02 | 39.19954 | -76.63653 | 10316 ft | 266 kts | 220° |
| 2026-05-08 02:02 | 39.18430 | -76.64977 | 10083 ft | 266 kts | 220° |
| 2026-05-08 02:02 | 39.16910 | -76.66352 | 9904 ft | 264 kts | 224° |
| 2026-05-08 02:02 | 39.15571 | -76.67924 | 9931 ft | 266 kts | 229° |
| 2026-05-08 02:03 | 39.14216 | -76.69565 | 9936 ft | 268 kts | 229° |
| 2026-05-08 02:03 | 39.12844 | -76.71192 | 9937 ft | 268 kts | 228° |
| 2026-05-08 02:03 | 39.11469 | -76.72811 | 9974 ft | 268 kts | 228° |
| 2026-05-08 02:03 | 39.10093 | -76.74440 | 9976 ft | 269 kts | 228° |
| 2026-05-08 02:04 | 39.08715 | -76.76075 | 9754 ft | 272 kts | 228° |
| 2026-05-08 02:04 | 39.07326 | -76.77719 | 9390 ft | 270 kts | 228° |
| 2026-05-08 02:04 | 39.05943 | -76.79352 | 9038 ft | 270 kts | 228° |
| 2026-05-08 02:04 | 39.04560 | -76.80987 | 8681 ft | 270 kts | 227° |
| 2026-05-08 02:05 | 39.03180 | -76.82618 | 8343 ft | 269 kts | 227° |
| 2026-05-08 02:05 | 39.01797 | -76.84252 | 7991 ft | 270 kts | 227° |
| 2026-05-08 02:05 | 39.00415 | -76.85883 | 7657 ft | 270 kts | 227° |
| 2026-05-08 02:05 | 38.99031 | -76.87515 | 7338 ft | 270 kts | 227° |
| 2026-05-08 02:06 | 38.97836 | -76.89325 | 6920 ft | 265 kts | 245° |
| 2026-05-08 02:06 | 38.97300 | -76.91535 | 6539 ft | 258 kts | 266° |
| 2026-05-08 02:06 | 38.97322 | -76.93816 | 6213 ft | 255 kts | 276° |
| 2026-05-08 02:06 | 38.97416 | -76.96090 | 5914 ft | 254 kts | 275° |
| 2026-05-08 02:07 | 38.97484 | -76.98256 | 5546 ft | 236 kts | 275° |
| 2026-05-08 02:07 | 38.97545 | -77.00269 | 5150 ft | 218 kts | 275° |
| 2026-05-08 02:07 | 38.97715 | -77.02175 | 4703 ft | 214 kts | 288° |
| 2026-05-08 02:07 | 38.98493 | -77.03788 | 4224 ft | 212 kts | 312° |
| 2026-05-08 02:08 | 38.99555 | -77.05058 | 3838 ft | 206 kts | 316° |
| 2026-05-08 02:08 | 39.00600 | -77.06302 | 3470 ft | 202 kts | 316° |
| 2026-05-08 02:08 | 39.01626 | -77.07548 | 3100 ft | 205 kts | 315° |
| 2026-05-08 02:08 | 39.02656 | -77.08799 | 2995 ft | 203 kts | 315° |
| 2026-05-08 02:09 | 39.03661 | -77.10091 | 2969 ft | 206 kts | 308° |
| 2026-05-08 02:09 | 39.04007 | -77.11855 | 2906 ft | 209 kts | 264° |
| 2026-05-08 02:09 | 39.03266 | -77.13435 | 2894 ft | 215 kts | 222° |
| 2026-05-08 02:09 | 39.01936 | -77.14329 | 3002 ft | 218 kts | 205° |
| 2026-05-08 02:10 | 39.00532 | -77.14986 | 2922 ft | 210 kts | 201° |
| 2026-05-08 02:10 | 38.99118 | -77.15283 | 2744 ft | 205 kts | 182° |
| 2026-05-08 02:10 | 38.97730 | -77.14872 | 2520 ft | 205 kts | 161° |
| 2026-05-08 02:10 | 38.96507 | -77.14066 | 2514 ft | 189 kts | 154° |
| 2026-05-08 02:11 | 38.95368 | -77.13219 | 2157 ft | 193 kts | 152° |
| 2026-05-08 02:11 | 38.94231 | -77.12280 | 1829 ft | 193 kts | 150° |
| 2026-05-08 02:11 | 38.93152 | -77.11364 | 1747 ft | 181 kts | 149° |
| 2026-05-08 02:11 | 38.92187 | -77.10548 | 1584 ft | 154 kts | 152° |
| 2026-05-08 02:12 | 38.91363 | -77.09742 | 1323 ft | 149 kts | 141° |
| 2026-05-08 02:12 | 38.90752 | -77.08684 | 1109 ft | 146 kts | 122° |
| 2026-05-08 02:12 | 38.90330 | -77.07521 | 949 ft | 140 kts | 117° |
| 2026-05-08 02:12 | 38.89727 | -77.06518 | 798 ft | 147 kts | 136° |
| 2026-05-08 02:13 | 38.88963 | -77.05653 | 629 ft | 144 kts | 143° |
| 2026-05-08 02:13 | 38.88258 | -77.04890 | 518 ft | 123 kts | 143° |
| 2026-05-08 02:13 | 38.87586 | -77.04261 | 369 ft | 117 kts | 153° |
| 2026-05-08 02:13 | 38.86758 | -77.03947 | 200 ft | 130 kts | 172° |
| 2026-05-08 02:14 | 38.85856 | -77.03848 | 27 ft | 125 kts | 176° |
| 2026-05-08 02:14 | 38.85130 | -77.03774 | 17 ft | 77 kts | 175° |
| 2026-05-08 02:14 | 38.84823 | -77.03746 | 17 ft | 30 kts | 176° |
| 2026-05-08 02:14 | 38.84667 | -77.03808 | 18 ft | 21 kts | 216° |
| 2026-05-08 02:15 | 38.84557 | -77.03881 | 17 ft | 19 kts | 206° |
| 2026-05-08 02:15 | 38.84459 | -77.03967 | 21 ft | 12 kts | 272° |
| 2026-05-08 02:15 | 38.84536 | -77.04017 | 21 ft | 16 kts | 346° |
| 2026-05-08 02:15 | 38.84653 | -77.04052 | 19 ft | 13 kts | 308° |
| 2026-05-08 02:16 | 38.84620 | -77.04152 | 21 ft | 16 kts | 255° |
| 2026-05-08 02:16 | 38.84587 | -77.04286 | 20 ft | 17 kts | 276° |
| 2026-05-08 02:16 | 38.84626 | -77.04403 | 20 ft | 13 kts | 310° |
| 2026-05-08 02:16 | 38.84619 | -77.04500 | 22 ft | 11 kts | 233° |